DKBBX EDRC-EDRC
Flight info
| Callsign | DKBBX |
|---|---|
| Flight time | 0h 7m |
| Altitude | 4000 |
| Route | DCT |
| Aircraft | GLID/L-SFG/C |
Departure
| Time | 2026-04-30 18:15 |
|---|---|
| Airport | Marpingen Glider Airfield (EDRC) |
Arrival
| Time | 2026-04-30 18:23 |
|---|---|
| Airport | Marpingen Glider Airfield (EDRC) |
| Time | Latitude | Longitude | Altitude | Speed | Heading |
|---|---|---|---|---|---|
| 2026-04-30 17:52 | 49.45151 | 7.04598 | 1166 ft | 0 kts | 317° |
| 2026-04-30 17:55 | 49.45226 | 7.04584 | 1168 ft | 0 kts | 283° |
| 2026-04-30 18:01 | 49.45225 | 7.04584 | 1168 ft | 0 kts | 283° |
| 2026-04-30 18:02 | 49.45226 | 7.04584 | 1165 ft | 0 kts | 283° |
| 2026-04-30 18:03 | 49.45232 | 7.04536 | 1166 ft | 24 kts | 281° |
| 2026-04-30 18:04 | 49.45435 | 7.02063 | 1443 ft | 82 kts | 278° |
| 2026-04-30 18:05 | 49.45439 | 7.01879 | 1557 ft | 38 kts | 75° |
| 2026-04-30 18:06 | 49.45350 | 7.03592 | 1173 ft | 43 kts | 96° |
| 2026-04-30 18:07 | 49.45219 | 7.04375 | 1166 ft | 0 kts | 118° |
| 2026-04-30 18:08 | 49.45196 | 7.04512 | 1164 ft | 4 kts | 98° |
| 2026-04-30 18:09 | 49.45225 | 7.04567 | 1167 ft | 0 kts | 279° |
| 2026-04-30 18:10 | 49.45225 | 7.04580 | 1165 ft | 0 kts | 285° |
| 2026-04-30 18:11 | 49.45247 | 7.04474 | 1165 ft | 23 kts | 282° |
| 2026-04-30 18:11 | 49.45221 | 7.04580 | 1165 ft | 0 kts | 275° |
| 2026-04-30 18:13 | 49.45222 | 7.04580 | 1165 ft | 0 kts | 276° |
| 2026-04-30 18:15 | 49.45360 | 7.03446 | 1222 ft | 84 kts | 282° |
| 2026-04-30 18:15 | 49.45505 | 7.00469 | 1808 ft | 99 kts | 272° |
| 2026-04-30 18:16 | 49.46232 | 6.99716 | 2129 ft | 70 kts | 28° |
| 2026-04-30 18:16 | 49.47092 | 7.00242 | 2480 ft | 57 kts | 77° |
| 2026-04-30 18:17 | 49.47039 | 7.00795 | 2587 ft | 56 kts | 107° |
| 2026-04-30 18:17 | 49.46874 | 7.01320 | 2776 ft | 57 kts | 111° |
| 2026-04-30 18:17 | 49.46160 | 7.00825 | 2823 ft | 102 kts | 265° |
| 2026-04-30 18:18 | 49.46481 | 7.00117 | 2862 ft | 68 kts | 26° |
| 2026-04-30 18:18 | 49.46612 | 7.00439 | 3070 ft | 42 kts | 114° |
| 2026-04-30 18:18 | 49.46216 | 7.00381 | 3100 ft | 86 kts | 207° |
| 2026-04-30 18:18 | 49.46177 | 6.99447 | 3041 ft | 93 kts | 316° |
| 2026-04-30 18:19 | 49.46605 | 6.99168 | 3135 ft | 56 kts | 47° |
| 2026-04-30 18:19 | 49.46699 | 6.99585 | 3138 ft | 44 kts | 94° |
| 2026-04-30 18:19 | 49.46628 | 7.00156 | 3140 ft | 57 kts | 104° |
| 2026-04-30 18:19 | 49.46478 | 7.00744 | 3139 ft | 63 kts | 106° |
| 2026-04-30 18:20 | 49.46285 | 7.01338 | 3085 ft | 63 kts | 112° |
| 2026-04-30 18:20 | 49.46082 | 7.01899 | 3074 ft | 59 kts | 110° |
| 2026-04-30 18:20 | 49.45888 | 7.02453 | 2998 ft | 60 kts | 111° |
| 2026-04-30 18:20 | 49.45685 | 7.03010 | 3025 ft | 64 kts | 110° |
| 2026-04-30 18:21 | 49.45761 | 7.03690 | 3210 ft | 72 kts | 64° |
| 2026-04-30 18:21 | 49.46247 | 7.04042 | 3222 ft | 96 kts | 18° |
| 2026-04-30 18:21 | 49.46930 | 7.03770 | 3219 ft | 99 kts | 356° |
| 2026-04-30 18:21 | 49.47471 | 7.03039 | 3159 ft | 120 kts | 288° |
| 2026-04-30 18:22 | 49.47403 | 7.01789 | 3107 ft | 119 kts | 251° |
| 2026-04-30 18:22 | 49.46849 | 6.99509 | 3015 ft | 106 kts | 211° |
| 2026-04-30 18:22 | 49.46330 | 6.99466 | 2865 ft | 69 kts | 124° |
| 2026-04-30 18:23 | 49.45983 | 7.00014 | 2555 ft | 77 kts | 122° |
| 2026-04-30 18:23 | 49.45786 | 7.00520 | 2371 ft | 36 kts | 119° |
| 2026-04-30 18:23 | 49.45728 | 7.00907 | 2190 ft | 47 kts | 105° |
| 2026-04-30 18:23 | 49.45633 | 7.01470 | 1981 ft | 59 kts | 131° |
| 2026-04-30 18:24 | 49.45476 | 7.02575 | 1545 ft | 46 kts | 100° |
| 2026-04-30 18:24 | 49.45413 | 7.03046 | 1323 ft | 45 kts | 95° |
| 2026-04-30 18:24 | 49.45363 | 7.03486 | 1172 ft | 34 kts | 96° |
| 2026-04-30 18:25 | 49.45330 | 7.03763 | 1165 ft | 21 kts | 113° |